sensor_id;sensor_type;location;lat;lon;timestamp;P1;durP1;ratioP1;P2;durP2;ratioP2
71204;SDS011;58935;54.498;18.544;2023-07-28T00:02:21;5.10;;;2.20;;
71204;SDS011;58935;54.498;18.544;2023-07-28T00:04:46;2.10;;;1.90;;
71204;SDS011;58935;54.498;18.544;2023-07-28T00:07:12;5.20;;;2.30;;
71204;SDS011;58935;54.498;18.544;2023-07-28T00:09:37;1.80;;;1.60;;
71204;SDS011;58935;54.498;18.544;2023-07-28T00:12:03;3.20;;;1.90;;
71204;SDS011;58935;54.498;18.544;2023-07-28T00:14:28;3.50;;;1.80;;
71204;SDS011;58935;54.498;18.544;2023-07-28T00:16:56;3.20;;;2.00;;
71204;SDS011;58935;54.498;18.544;2023-07-28T00:19:22;5.10;;;1.60;;
71204;SDS011;58935;54.498;18.544;2023-07-28T00:21:48;2.60;;;2.00;;
71204;SDS011;58935;54.498;18.544;2023-07-28T00:24:15;4.00;;;2.00;;
71204;SDS011;58935;54.498;18.544;2023-07-28T00:26:41;2.90;;;2.00;;
71204;SDS011;58935;54.498;18.544;2023-07-28T00:29:07;2.80;;;2.20;;
71204;SDS011;58935;54.498;18.544;2023-07-28T00:31:33;2.20;;;1.90;;
71204;SDS011;58935;54.498;18.544;2023-07-28T00:33:59;2.00;;;1.80;;
71204;SDS011;58935;54.498;18.544;2023-07-28T00:36:25;3.50;;;1.80;;
71204;SDS011;58935;54.498;18.544;2023-07-28T00:38:50;2.50;;;2.20;;
71204;SDS011;58935;54.498;18.544;2023-07-28T00:41:16;5.40;;;2.40;;
71204;SDS011;58935;54.498;18.544;2023-07-28T00:43:41;2.40;;;1.80;;
71204;SDS011;58935;54.498;18.544;2023-07-28T00:46:08;3.60;;;1.80;;
71204;SDS011;58935;54.498;18.544;2023-07-28T00:48:53;4.10;;;2.00;;
71204;SDS011;58935;54.498;18.544;2023-07-28T00:51:19;2.30;;;2.10;;
71204;SDS011;58935;54.498;18.544;2023-07-28T00:53:44;6.40;;;2.50;;
71204;SDS011;58935;54.498;18.544;2023-07-28T00:56:10;7.20;;;2.40;;
71204;SDS011;58935;54.498;18.544;2023-07-28T00:58:37;2.90;;;2.60;;
71204;SDS011;58935;54.498;18.544;2023-07-28T01:01:02;2.70;;;2.20;;
71204;SDS011;58935;54.498;18.544;2023-07-28T01:03:28;4.00;;;2.50;;
71204;SDS011;58935;54.498;18.544;2023-07-28T01:06:03;6.40;;;2.40;;
71204;SDS011;58935;54.498;18.544;2023-07-28T01:08:47;3.10;;;2.40;;
71204;SDS011;58935;54.498;18.544;2023-07-28T01:11:17;5.90;;;2.30;;
71204;SDS011;58935;54.498;18.544;2023-07-28T01:13:42;8.00;;;2.50;;
71204;SDS011;58935;54.498;18.544;2023-07-28T01:16:08;3.40;;;2.50;;
71204;SDS011;58935;54.498;18.544;2023-07-28T01:18:34;3.50;;;2.70;;
71204;SDS011;58935;54.498;18.544;2023-07-28T01:21:03;4.20;;;2.70;;
71204;SDS011;58935;54.498;18.544;2023-07-28T01:23:41;4.70;;;2.70;;
71204;SDS011;58935;54.498;18.544;2023-07-28T01:26:16;4.70;;;2.50;;
71204;SDS011;58935;54.498;18.544;2023-07-28T01:28:44;4.40;;;2.30;;
71204;SDS011;58935;54.498;18.544;2023-07-28T01:31:10;2.70;;;2.30;;
71204;SDS011;58935;54.498;18.544;2023-07-28T01:33:36;8.10;;;3.10;;
71204;SDS011;58935;54.498;18.544;2023-07-28T01:36:02;5.00;;;2.60;;
71204;SDS011;58935;54.498;18.544;2023-07-28T01:38:50;2.70;;;2.50;;
71204;SDS011;58935;54.498;18.544;2023-07-28T01:41:15;3.80;;;2.60;;
71204;SDS011;58935;54.498;18.544;2023-07-28T01:43:41;4.20;;;2.40;;
71204;SDS011;58935;54.498;18.544;2023-07-28T01:46:07;2.60;;;2.40;;
71204;SDS011;58935;54.498;18.544;2023-07-28T01:48:33;3.80;;;2.80;;
71204;SDS011;58935;54.498;18.544;2023-07-28T01:50:59;10.10;;;2.80;;
71204;SDS011;58935;54.498;18.544;2023-07-28T01:53:24;7.60;;;2.60;;
71204;SDS011;58935;54.498;18.544;2023-07-28T01:55:50;4.50;;;2.80;;
71204;SDS011;58935;54.498;18.544;2023-07-28T01:58:15;3.60;;;2.50;;
71204;SDS011;58935;54.498;18.544;2023-07-28T02:00:40;3.10;;;2.80;;
71204;SDS011;58935;54.498;18.544;2023-07-28T02:03:06;5.30;;;2.60;;
71204;SDS011;58935;54.498;18.544;2023-07-28T02:05:32;5.10;;;2.70;;
71204;SDS011;58935;54.498;18.544;2023-07-28T02:07:57;3.80;;;2.40;;
71204;SDS011;58935;54.498;18.544;2023-07-28T02:10:25;8.70;;;3.20;;
71204;SDS011;58935;54.498;18.544;2023-07-28T02:12:51;8.50;;;3.00;;
71204;SDS011;58935;54.498;18.544;2023-07-28T02:15:17;4.80;;;2.80;;
71204;SDS011;58935;54.498;18.544;2023-07-28T02:17:43;3.50;;;2.90;;
71204;SDS011;58935;54.498;18.544;2023-07-28T02:20:08;4.10;;;2.70;;
71204;SDS011;58935;54.498;18.544;2023-07-28T02:22:42;3.30;;;3.00;;
71204;SDS011;58935;54.498;18.544;2023-07-28T02:25:08;5.10;;;2.60;;
71204;SDS011;58935;54.498;18.544;2023-07-28T02:27:34;4.00;;;3.10;;
71204;SDS011;58935;54.498;18.544;2023-07-28T02:30:00;8.20;;;3.00;;
71204;SDS011;58935;54.498;18.544;2023-07-28T02:32:27;6.50;;;2.90;;
71204;SDS011;58935;54.498;18.544;2023-07-28T02:34:53;4.50;;;3.00;;
71204;SDS011;58935;54.498;18.544;2023-07-28T02:37:20;3.60;;;3.10;;
71204;SDS011;58935;54.498;18.544;2023-07-28T02:39:46;10.00;;;3.40;;
71204;SDS011;58935;54.498;18.544;2023-07-28T02:42:12;5.70;;;3.00;;
71204;SDS011;58935;54.498;18.544;2023-07-28T02:44:38;4.70;;;2.90;;
71204;SDS011;58935;54.498;18.544;2023-07-28T02:47:04;3.40;;;3.10;;
71204;SDS011;58935;54.498;18.544;2023-07-28T02:49:30;3.90;;;2.90;;
71204;SDS011;58935;54.498;18.544;2023-07-28T02:51:55;3.20;;;2.90;;
71204;SDS011;58935;54.498;18.544;2023-07-28T02:54:21;3.30;;;3.00;;
71204;SDS011;58935;54.498;18.544;2023-07-28T02:56:49;3.50;;;3.10;;
71204;SDS011;58935;54.498;18.544;2023-07-28T02:59:14;3.20;;;2.90;;
71204;SDS011;58935;54.498;18.544;2023-07-28T03:01:40;5.60;;;3.10;;
71204;SDS011;58935;54.498;18.544;2023-07-28T03:04:06;6.10;;;3.00;;
71204;SDS011;58935;54.498;18.544;2023-07-28T03:06:31;3.10;;;2.90;;
71204;SDS011;58935;54.498;18.544;2023-07-28T03:08:58;4.90;;;3.00;;
71204;SDS011;58935;54.498;18.544;2023-07-28T03:11:24;6.00;;;3.00;;
71204;SDS011;58935;54.498;18.544;2023-07-28T03:13:49;4.00;;;3.10;;
71204;SDS011;58935;54.498;18.544;2023-07-28T03:16:15;6.20;;;3.00;;
71204;SDS011;58935;54.498;18.544;2023-07-28T03:18:40;3.40;;;3.00;;
71204;SDS011;58935;54.498;18.544;2023-07-28T03:21:05;7.00;;;3.30;;
71204;SDS011;58935;54.498;18.544;2023-07-28T03:23:31;4.10;;;3.20;;
71204;SDS011;58935;54.498;18.544;2023-07-28T03:25:56;4.30;;;3.00;;
71204;SDS011;58935;54.498;18.544;2023-07-28T03:28:22;3.10;;;2.60;;
71204;SDS011;58935;54.498;18.544;2023-07-28T03:30:47;5.00;;;2.70;;
71204;SDS011;58935;54.498;18.544;2023-07-28T03:33:13;4.30;;;2.80;;
71204;SDS011;58935;54.498;18.544;2023-07-28T03:35:38;5.60;;;3.20;;
71204;SDS011;58935;54.498;18.544;2023-07-28T03:38:03;3.90;;;3.00;;
71204;SDS011;58935;54.498;18.544;2023-07-28T03:40:29;4.30;;;3.10;;
71204;SDS011;58935;54.498;18.544;2023-07-28T03:42:54;7.60;;;3.30;;
71204;SDS011;58935;54.498;18.544;2023-07-28T03:45:20;3.70;;;3.10;;
71204;SDS011;58935;54.498;18.544;2023-07-28T03:47:46;3.70;;;2.90;;
71204;SDS011;58935;54.498;18.544;2023-07-28T03:50:11;6.00;;;2.90;;
71204;SDS011;58935;54.498;18.544;2023-07-28T03:52:37;4.10;;;3.30;;
71204;SDS011;58935;54.498;18.544;2023-07-28T03:55:02;6.20;;;3.40;;
71204;SDS011;58935;54.498;18.544;2023-07-28T03:57:28;5.00;;;3.30;;
71204;SDS011;58935;54.498;18.544;2023-07-28T03:59:53;4.70;;;3.40;;
71204;SDS011;58935;54.498;18.544;2023-07-28T04:02:19;5.90;;;3.50;;
71204;SDS011;58935;54.498;18.544;2023-07-28T04:04:44;4.80;;;3.40;;
71204;SDS011;58935;54.498;18.544;2023-07-28T04:07:10;4.30;;;3.20;;
71204;SDS011;58935;54.498;18.544;2023-07-28T04:09:35;3.90;;;2.80;;
71204;SDS011;58935;54.498;18.544;2023-07-28T04:12:00;6.10;;;2.90;;
71204;SDS011;58935;54.498;18.544;2023-07-28T04:14:26;6.20;;;3.10;;
71204;SDS011;58935;54.498;18.544;2023-07-28T04:16:51;3.70;;;3.20;;
71204;SDS011;58935;54.498;18.544;2023-07-28T04:19:17;3.70;;;2.90;;
71204;SDS011;58935;54.498;18.544;2023-07-28T04:21:42;3.40;;;3.10;;
71204;SDS011;58935;54.498;18.544;2023-07-28T04:24:08;3.50;;;2.80;;
71204;SDS011;58935;54.498;18.544;2023-07-28T04:26:34;3.90;;;2.90;;
71204;SDS011;58935;54.498;18.544;2023-07-28T04:28:59;3.40;;;3.10;;
71204;SDS011;58935;54.498;18.544;2023-07-28T04:31:26;3.90;;;2.90;;
71204;SDS011;58935;54.498;18.544;2023-07-28T04:33:51;5.00;;;3.40;;
71204;SDS011;58935;54.498;18.544;2023-07-28T04:36:17;4.40;;;2.80;;
71204;SDS011;58935;54.498;18.544;2023-07-28T04:38:42;4.50;;;3.10;;
71204;SDS011;58935;54.498;18.544;2023-07-28T04:41:07;5.00;;;2.90;;
71204;SDS011;58935;54.498;18.544;2023-07-28T04:43:33;3.70;;;3.00;;
71204;SDS011;58935;54.498;18.544;2023-07-28T04:45:58;6.50;;;2.80;;
71204;SDS011;58935;54.498;18.544;2023-07-28T04:48:24;8.30;;;3.40;;
71204;SDS011;58935;54.498;18.544;2023-07-28T04:50:49;6.40;;;3.20;;
71204;SDS011;58935;54.498;18.544;2023-07-28T04:53:15;4.30;;;3.20;;
71204;SDS011;58935;54.498;18.544;2023-07-28T04:55:40;5.60;;;3.80;;
71204;SDS011;58935;54.498;18.544;2023-07-28T04:58:06;4.40;;;3.00;;
71204;SDS011;58935;54.498;18.544;2023-07-28T05:00:31;6.00;;;3.30;;
71204;SDS011;58935;54.498;18.544;2023-07-28T05:02:56;6.50;;;3.70;;
71204;SDS011;58935;54.498;18.544;2023-07-28T05:05:22;3.60;;;3.20;;
71204;SDS011;58935;54.498;18.544;2023-07-28T05:07:48;5.00;;;3.50;;
71204;SDS011;58935;54.498;18.544;2023-07-28T05:10:13;5.30;;;3.70;;
71204;SDS011;58935;54.498;18.544;2023-07-28T05:12:39;5.80;;;3.90;;
71204;SDS011;58935;54.498;18.544;2023-07-28T05:15:05;6.00;;;3.70;;
71204;SDS011;58935;54.498;18.544;2023-07-28T05:17:35;3.80;;;3.40;;
71204;SDS011;58935;54.498;18.544;2023-07-28T05:20:01;6.20;;;3.20;;
71204;SDS011;58935;54.498;18.544;2023-07-28T05:22:27;4.20;;;3.10;;
71204;SDS011;58935;54.498;18.544;2023-07-28T05:24:52;13.90;;;3.40;;
71204;SDS011;58935;54.498;18.544;2023-07-28T05:27:17;6.30;;;3.50;;
71204;SDS011;58935;54.498;18.544;2023-07-28T05:29:43;4.80;;;3.30;;
71204;SDS011;58935;54.498;18.544;2023-07-28T05:32:08;7.50;;;3.10;;
71204;SDS011;58935;54.498;18.544;2023-07-28T05:34:34;5.30;;;2.70;;
71204;SDS011;58935;54.498;18.544;2023-07-28T05:36:59;8.70;;;4.30;;
71204;SDS011;58935;54.498;18.544;2023-07-28T05:39:24;11.10;;;4.50;;
71204;SDS011;58935;54.498;18.544;2023-07-28T05:41:50;5.80;;;3.90;;
71204;SDS011;58935;54.498;18.544;2023-07-28T05:44:15;4.40;;;3.70;;
71204;SDS011;58935;54.498;18.544;2023-07-28T05:46:40;6.40;;;4.30;;
71204;SDS011;58935;54.498;18.544;2023-07-28T05:49:06;13.20;;;4.00;;
71204;SDS011;58935;54.498;18.544;2023-07-28T05:51:31;4.70;;;3.60;;
71204;SDS011;58935;54.498;18.544;2023-07-28T05:53:57;4.10;;;3.60;;
71204;SDS011;58935;54.498;18.544;2023-07-28T05:56:23;5.50;;;3.30;;
71204;SDS011;58935;54.498;18.544;2023-07-28T05:58:49;5.60;;;3.40;;
71204;SDS011;58935;54.498;18.544;2023-07-28T06:01:15;9.10;;;3.40;;
71204;SDS011;58935;54.498;18.544;2023-07-28T06:03:40;9.30;;;3.90;;
71204;SDS011;58935;54.498;18.544;2023-07-28T06:06:06;6.30;;;3.70;;
71204;SDS011;58935;54.498;18.544;2023-07-28T06:08:32;6.40;;;3.90;;
71204;SDS011;58935;54.498;18.544;2023-07-28T06:10:58;15.90;;;3.90;;
71204;SDS011;58935;54.498;18.544;2023-07-28T06:13:24;6.50;;;4.00;;
71204;SDS011;58935;54.498;18.544;2023-07-28T06:15:53;5.80;;;3.70;;
71204;SDS011;58935;54.498;18.544;2023-07-28T06:18:19;6.70;;;3.70;;
71204;SDS011;58935;54.498;18.544;2023-07-28T06:20:49;4.90;;;4.20;;
71204;SDS011;58935;54.498;18.544;2023-07-28T06:23:14;7.50;;;3.50;;
71204;SDS011;58935;54.498;18.544;2023-07-28T06:25:39;7.70;;;4.10;;
71204;SDS011;58935;54.498;18.544;2023-07-28T06:28:09;6.30;;;3.80;;
71204;SDS011;58935;54.498;18.544;2023-07-28T06:30:36;6.10;;;3.90;;
71204;SDS011;58935;54.498;18.544;2023-07-28T06:33:03;16.70;;;4.70;;
71204;SDS011;58935;54.498;18.544;2023-07-28T06:35:31;12.10;;;4.50;;
71204;SDS011;58935;54.498;18.544;2023-07-28T06:37:57;7.00;;;3.80;;
71204;SDS011;58935;54.498;18.544;2023-07-28T06:40:22;8.10;;;4.40;;
71204;SDS011;58935;54.498;18.544;2023-07-28T06:42:47;8.90;;;4.20;;
71204;SDS011;58935;54.498;18.544;2023-07-28T06:45:13;9.50;;;4.30;;
71204;SDS011;58935;54.498;18.544;2023-07-28T06:47:39;12.50;;;4.50;;
71204;SDS011;58935;54.498;18.544;2023-07-28T06:50:05;6.50;;;3.90;;
71204;SDS011;58935;54.498;18.544;2023-07-28T06:52:31;4.40;;;3.80;;
71204;SDS011;58935;54.498;18.544;2023-07-28T06:54:56;7.70;;;3.60;;
71204;SDS011;58935;54.498;18.544;2023-07-28T06:57:22;5.30;;;3.70;;
71204;SDS011;58935;54.498;18.544;2023-07-28T06:59:48;5.50;;;3.50;;
71204;SDS011;58935;54.498;18.544;2023-07-28T07:02:15;6.20;;;3.20;;
71204;SDS011;58935;54.498;18.544;2023-07-28T07:04:41;5.90;;;3.20;;
71204;SDS011;58935;54.498;18.544;2023-07-28T07:07:07;7.10;;;3.90;;
71204;SDS011;58935;54.498;18.544;2023-07-28T07:09:32;7.10;;;3.50;;
71204;SDS011;58935;54.498;18.544;2023-07-28T07:11:57;5.80;;;3.80;;
71204;SDS011;58935;54.498;18.544;2023-07-28T07:14:23;4.50;;;3.20;;
71204;SDS011;58935;54.498;18.544;2023-07-28T07:16:49;8.00;;;3.10;;
71204;SDS011;58935;54.498;18.544;2023-07-28T07:19:14;6.50;;;3.30;;
71204;SDS011;58935;54.498;18.544;2023-07-28T07:21:41;3.90;;;3.20;;
71204;SDS011;58935;54.498;18.544;2023-07-28T07:24:07;6.40;;;3.40;;
71204;SDS011;58935;54.498;18.544;2023-07-28T07:26:33;5.00;;;3.10;;
71204;SDS011;58935;54.498;18.544;2023-07-28T07:28:58;4.50;;;3.70;;
71204;SDS011;58935;54.498;18.544;2023-07-28T07:31:24;9.00;;;3.10;;
71204;SDS011;58935;54.498;18.544;2023-07-28T07:33:50;10.60;;;4.10;;
71204;SDS011;58935;54.498;18.544;2023-07-28T07:36:16;4.80;;;3.80;;
71204;SDS011;58935;54.498;18.544;2023-07-28T07:38:43;6.90;;;4.50;;
71204;SDS011;58935;54.498;18.544;2023-07-28T07:41:12;8.40;;;4.00;;
71204;SDS011;58935;54.498;18.544;2023-07-28T07:43:40;5.80;;;4.00;;
71204;SDS011;58935;54.498;18.544;2023-07-28T07:46:06;12.80;;;4.00;;
71204;SDS011;58935;54.498;18.544;2023-07-28T07:48:31;21.00;;;3.90;;
71204;SDS011;58935;54.498;18.544;2023-07-28T07:50:57;13.20;;;4.80;;
71204;SDS011;58935;54.498;18.544;2023-07-28T07:53:22;17.50;;;4.90;;
71204;SDS011;58935;54.498;18.544;2023-07-28T07:55:48;16.00;;;4.10;;
71204;SDS011;58935;54.498;18.544;2023-07-28T07:58:14;13.40;;;4.60;;
71204;SDS011;58935;54.498;18.544;2023-07-28T08:00:40;7.90;;;5.00;;
71204;SDS011;58935;54.498;18.544;2023-07-28T08:03:06;12.70;;;5.60;;
71204;SDS011;58935;54.498;18.544;2023-07-28T08:05:31;12.90;;;5.60;;
71204;SDS011;58935;54.498;18.544;2023-07-28T08:07:57;23.00;;;6.40;;
71204;SDS011;58935;54.498;18.544;2023-07-28T08:10:22;14.30;;;6.20;;
71204;SDS011;58935;54.498;18.544;2023-07-28T08:12:48;22.00;;;6.10;;
71204;SDS011;58935;54.498;18.544;2023-07-28T08:15:15;18.40;;;6.00;;
71204;SDS011;58935;54.498;18.544;2023-07-28T08:17:40;22.90;;;6.90;;
71204;SDS011;58935;54.498;18.544;2023-07-28T08:20:07;18.70;;;6.40;;
71204;SDS011;58935;54.498;18.544;2023-07-28T08:22:33;28.20;;;6.70;;
71204;SDS011;58935;54.498;18.544;2023-07-28T08:24:59;25.00;;;7.40;;
71204;SDS011;58935;54.498;18.544;2023-07-28T08:27:24;29.40;;;6.50;;
71204;SDS011;58935;54.498;18.544;2023-07-28T08:29:50;29.90;;;6.90;;
71204;SDS011;58935;54.498;18.544;2023-07-28T08:32:15;35.70;;;8.00;;
71204;SDS011;58935;54.498;18.544;2023-07-28T08:34:40;23.90;;;6.90;;
71204;SDS011;58935;54.498;18.544;2023-07-28T08:37:06;26.30;;;6.50;;
71204;SDS011;58935;54.498;18.544;2023-07-28T08:39:32;28.80;;;6.80;;
71204;SDS011;58935;54.498;18.544;2023-07-28T08:42:00;34.40;;;7.20;;
71204;SDS011;58935;54.498;18.544;2023-07-28T08:44:30;37.60;;;6.90;;
71204;SDS011;58935;54.498;18.544;2023-07-28T08:46:58;22.90;;;6.60;;
71204;SDS011;58935;54.498;18.544;2023-07-28T08:49:24;25.50;;;7.50;;
71204;SDS011;58935;54.498;18.544;2023-07-28T08:51:50;24.10;;;6.60;;
71204;SDS011;58935;54.498;18.544;2023-07-28T08:54:16;36.50;;;6.40;;
71204;SDS011;58935;54.498;18.544;2023-07-28T08:56:43;29.90;;;6.40;;
71204;SDS011;58935;54.498;18.544;2023-07-28T08:59:09;25.70;;;6.30;;
71204;SDS011;58935;54.498;18.544;2023-07-28T09:01:41;30.10;;;6.20;;
71204;SDS011;58935;54.498;18.544;2023-07-28T09:04:11;24.20;;;5.80;;
71204;SDS011;58935;54.498;18.544;2023-07-28T09:06:37;21.30;;;6.70;;
71204;SDS011;58935;54.498;18.544;2023-07-28T09:09:07;32.80;;;10.90;;
71204;SDS011;58935;54.498;18.544;2023-07-28T09:11:33;27.90;;;5.40;;
71204;SDS011;58935;54.498;18.544;2023-07-28T09:14:00;24.00;;;5.90;;
71204;SDS011;58935;54.498;18.544;2023-07-28T09:16:26;13.20;;;4.80;;
71204;SDS011;58935;54.498;18.544;2023-07-28T09:19:07;12.90;;;5.20;;
71204;SDS011;58935;54.498;18.544;2023-07-28T09:21:33;18.20;;;5.10;;
71204;SDS011;58935;54.498;18.544;2023-07-28T09:24:00;21.60;;;5.60;;
71204;SDS011;58935;54.498;18.544;2023-07-28T09:26:36;17.10;;;5.00;;
71204;SDS011;58935;54.498;18.544;2023-07-28T09:29:19;10.80;;;4.60;;
71204;SDS011;58935;54.498;18.544;2023-07-28T09:31:47;9.90;;;4.80;;
71204;SDS011;58935;54.498;18.544;2023-07-28T09:34:24;12.20;;;3.90;;
71204;SDS011;58935;54.498;18.544;2023-07-28T09:36:53;11.10;;;4.60;;
71204;SDS011;58935;54.498;18.544;2023-07-28T09:39:20;9.40;;;4.80;;
71204;SDS011;58935;54.498;18.544;2023-07-28T09:41:46;10.70;;;4.90;;
71204;SDS011;58935;54.498;18.544;2023-07-28T09:44:13;5.30;;;3.60;;
71204;SDS011;58935;54.498;18.544;2023-07-28T09:46:53;6.90;;;3.90;;
71204;SDS011;58935;54.498;18.544;2023-07-28T09:49:36;5.70;;;3.50;;
71204;SDS011;58935;54.498;18.544;2023-07-28T09:52:05;4.00;;;3.60;;
71204;SDS011;58935;54.498;18.544;2023-07-28T09:54:39;7.00;;;3.30;;
71204;SDS011;58935;54.498;18.544;2023-07-28T09:57:12;9.80;;;3.70;;
71204;SDS011;58935;54.498;18.544;2023-07-28T09:59:40;5.20;;;3.00;;
71204;SDS011;58935;54.498;18.544;2023-07-28T10:02:07;7.30;;;3.10;;
71204;SDS011;58935;54.498;18.544;2023-07-28T10:04:34;5.20;;;3.00;;
71204;SDS011;58935;54.498;18.544;2023-07-28T10:07:01;3.40;;;2.90;;
71204;SDS011;58935;54.498;18.544;2023-07-28T10:09:30;5.20;;;3.30;;
71204;SDS011;58935;54.498;18.544;2023-07-28T10:11:59;11.80;;;3.50;;
71204;SDS011;58935;54.498;18.544;2023-07-28T10:14:27;5.70;;;3.30;;
71204;SDS011;58935;54.498;18.544;2023-07-28T10:16:54;8.00;;;3.50;;
71204;SDS011;58935;54.498;18.544;2023-07-28T10:19:21;10.30;;;3.70;;
71204;SDS011;58935;54.498;18.544;2023-07-28T10:21:46;3.60;;;3.30;;
71204;SDS011;58935;54.498;18.544;2023-07-28T10:24:12;3.90;;;3.40;;
71204;SDS011;58935;54.498;18.544;2023-07-28T10:26:40;3.80;;;3.20;;
71204;SDS011;58935;54.498;18.544;2023-07-28T10:29:11;4.30;;;3.10;;
71204;SDS011;58935;54.498;18.544;2023-07-28T10:31:49;5.90;;;2.90;;
71204;SDS011;58935;54.498;18.544;2023-07-28T10:34:19;4.70;;;3.50;;
71204;SDS011;58935;54.498;18.544;2023-07-28T10:36:45;5.70;;;3.00;;
71204;SDS011;58935;54.498;18.544;2023-07-28T10:39:15;7.50;;;3.10;;
71204;SDS011;58935;54.498;18.544;2023-07-28T10:41:59;4.60;;;3.20;;
71204;SDS011;58935;54.498;18.544;2023-07-28T10:44:37;3.80;;;3.10;;
71204;SDS011;58935;54.498;18.544;2023-07-28T10:47:07;5.50;;;3.40;;
71204;SDS011;58935;54.498;18.544;2023-07-28T10:49:35;9.30;;;3.80;;
71204;SDS011;58935;54.498;18.544;2023-07-28T10:52:00;5.50;;;3.50;;
71204;SDS011;58935;54.498;18.544;2023-07-28T10:54:25;8.00;;;3.60;;
71204;SDS011;58935;54.498;18.544;2023-07-28T10:56:52;10.80;;;4.50;;
71204;SDS011;58935;54.498;18.544;2023-07-28T10:59:17;8.70;;;4.20;;
71204;SDS011;58935;54.498;18.544;2023-07-28T11:01:43;13.80;;;5.00;;
71204;SDS011;58935;54.498;18.544;2023-07-28T11:04:14;10.40;;;3.80;;
71204;SDS011;58935;54.498;18.544;2023-07-28T11:06:46;11.30;;;5.50;;
71204;SDS011;58935;54.498;18.544;2023-07-28T11:09:15;7.10;;;4.20;;
71204;SDS011;58935;54.498;18.544;2023-07-28T11:11:44;13.40;;;5.00;;
71204;SDS011;58935;54.498;18.544;2023-07-28T11:14:11;13.90;;;4.40;;
71204;SDS011;58935;54.498;18.544;2023-07-28T11:16:41;6.00;;;4.40;;
71204;SDS011;58935;54.498;18.544;2023-07-28T11:19:09;10.20;;;4.40;;
71204;SDS011;58935;54.498;18.544;2023-07-28T11:21:40;9.10;;;4.60;;
71204;SDS011;58935;54.498;18.544;2023-07-28T11:24:07;8.00;;;4.60;;
71204;SDS011;58935;54.498;18.544;2023-07-28T11:26:34;9.60;;;4.40;;
71204;SDS011;58935;54.498;18.544;2023-07-28T11:29:01;8.40;;;4.60;;
71204;SDS011;58935;54.498;18.544;2023-07-28T11:31:28;9.20;;;4.10;;
71204;SDS011;58935;54.498;18.544;2023-07-28T11:33:53;11.90;;;4.70;;
71204;SDS011;58935;54.498;18.544;2023-07-28T11:36:28;10.80;;;4.60;;
71204;SDS011;58935;54.498;18.544;2023-07-28T11:38:57;9.00;;;4.30;;
71204;SDS011;58935;54.498;18.544;2023-07-28T11:41:25;10.30;;;4.50;;
71204;SDS011;58935;54.498;18.544;2023-07-28T11:43:52;14.70;;;4.70;;
71204;SDS011;58935;54.498;18.544;2023-07-28T11:46:37;15.00;;;6.80;;
71204;SDS011;58935;54.498;18.544;2023-07-28T11:49:12;9.70;;;4.20;;
71204;SDS011;58935;54.498;18.544;2023-07-28T11:51:49;5.50;;;4.10;;
71204;SDS011;58935;54.498;18.544;2023-07-28T11:54:19;9.20;;;4.50;;
71204;SDS011;58935;54.498;18.544;2023-07-28T11:56:49;9.50;;;4.20;;
71204;SDS011;58935;54.498;18.544;2023-07-28T11:59:17;8.00;;;3.80;;
71204;SDS011;58935;54.498;18.544;2023-07-28T12:01:57;6.20;;;3.80;;
71204;SDS011;58935;54.498;18.544;2023-07-28T12:04:26;14.60;;;4.10;;
71204;SDS011;58935;54.498;18.544;2023-07-28T12:07:06;7.90;;;3.90;;
71204;SDS011;58935;54.498;18.544;2023-07-28T12:09:49;13.20;;;4.40;;
71204;SDS011;58935;54.498;18.544;2023-07-28T12:14:45;10.80;;;4.20;;
71204;SDS011;58935;54.498;18.544;2023-07-28T12:17:17;6.20;;;3.80;;
71204;SDS011;58935;54.498;18.544;2023-07-28T12:19:57;5.20;;;3.90;;
71204;SDS011;58935;54.498;18.544;2023-07-28T12:22:25;8.80;;;4.40;;
71204;SDS011;58935;54.498;18.544;2023-07-28T12:24:52;8.40;;;4.70;;
71204;SDS011;58935;54.498;18.544;2023-07-28T12:27:19;5.30;;;4.40;;
71204;SDS011;58935;54.498;18.544;2023-07-28T12:29:52;5.50;;;4.30;;
71204;SDS011;58935;54.498;18.544;2023-07-28T12:32:18;9.10;;;4.00;;
71204;SDS011;58935;54.498;18.544;2023-07-28T12:34:44;13.10;;;4.80;;
71204;SDS011;58935;54.498;18.544;2023-07-28T12:37:09;11.70;;;4.30;;
71204;SDS011;58935;54.498;18.544;2023-07-28T12:39:37;9.10;;;4.60;;
71204;SDS011;58935;54.498;18.544;2023-07-28T12:42:05;11.20;;;4.60;;
71204;SDS011;58935;54.498;18.544;2023-07-28T12:44:32;5.40;;;4.50;;
71204;SDS011;58935;54.498;18.544;2023-07-28T12:46:57;11.30;;;5.20;;
71204;SDS011;58935;54.498;18.544;2023-07-28T12:49:23;7.70;;;4.30;;
71204;SDS011;58935;54.498;18.544;2023-07-28T12:51:49;11.10;;;4.70;;
71204;SDS011;58935;54.498;18.544;2023-07-28T12:54:14;7.50;;;4.70;;
71204;SDS011;58935;54.498;18.544;2023-07-28T12:56:40;6.00;;;4.90;;
71204;SDS011;58935;54.498;18.544;2023-07-28T12:59:06;5.60;;;4.30;;
71204;SDS011;58935;54.498;18.544;2023-07-28T13:01:31;5.60;;;4.60;;
71204;SDS011;58935;54.498;18.544;2023-07-28T13:03:56;11.20;;;4.80;;
71204;SDS011;58935;54.498;18.544;2023-07-28T13:06:22;10.90;;;5.00;;
71204;SDS011;58935;54.498;18.544;2023-07-28T13:08:47;10.70;;;4.60;;
71204;SDS011;58935;54.498;18.544;2023-07-28T13:11:12;6.60;;;4.40;;
71204;SDS011;58935;54.498;18.544;2023-07-28T13:13:40;9.80;;;4.80;;
71204;SDS011;58935;54.498;18.544;2023-07-28T13:16:07;5.30;;;4.40;;
71204;SDS011;58935;54.498;18.544;2023-07-28T13:18:32;4.90;;;4.30;;
71204;SDS011;58935;54.498;18.544;2023-07-28T13:20:58;10.40;;;5.00;;
71204;SDS011;58935;54.498;18.544;2023-07-28T13:23:24;8.80;;;5.30;;
71204;SDS011;58935;54.498;18.544;2023-07-28T13:25:50;11.50;;;5.20;;
71204;SDS011;58935;54.498;18.544;2023-07-28T13:28:17;9.50;;;4.50;;
71204;SDS011;58935;54.498;18.544;2023-07-28T13:30:43;8.90;;;6.20;;
71204;SDS011;58935;54.498;18.544;2023-07-28T13:33:08;12.20;;;5.90;;
71204;SDS011;58935;54.498;18.544;2023-07-28T13:35:34;10.50;;;4.60;;
71204;SDS011;58935;54.498;18.544;2023-07-28T13:37:59;7.50;;;4.50;;
71204;SDS011;58935;54.498;18.544;2023-07-28T13:40:25;6.40;;;5.10;;
71204;SDS011;58935;54.498;18.544;2023-07-28T13:42:50;10.50;;;4.90;;
71204;SDS011;58935;54.498;18.544;2023-07-28T13:45:15;9.30;;;5.20;;
71204;SDS011;58935;54.498;18.544;2023-07-28T13:47:41;8.30;;;5.20;;
71204;SDS011;58935;54.498;18.544;2023-07-28T13:50:06;9.00;;;5.40;;
71204;SDS011;58935;54.498;18.544;2023-07-28T13:52:32;13.60;;;6.20;;
71204;SDS011;58935;54.498;18.544;2023-07-28T13:54:57;9.50;;;5.40;;
71204;SDS011;58935;54.498;18.544;2023-07-28T13:57:23;10.30;;;6.00;;
71204;SDS011;58935;54.498;18.544;2023-07-28T13:59:49;10.10;;;5.60;;
71204;SDS011;58935;54.498;18.544;2023-07-28T14:02:16;8.10;;;6.10;;
71204;SDS011;58935;54.498;18.544;2023-07-28T14:04:43;10.30;;;5.70;;
71204;SDS011;58935;54.498;18.544;2023-07-28T14:07:09;14.20;;;6.10;;
71204;SDS011;58935;54.498;18.544;2023-07-28T14:09:35;12.70;;;6.40;;
71204;SDS011;58935;54.498;18.544;2023-07-28T14:12:02;10.00;;;5.50;;
71204;SDS011;58935;54.498;18.544;2023-07-28T14:14:29;10.90;;;5.60;;
71204;SDS011;58935;54.498;18.544;2023-07-28T14:16:54;14.30;;;5.50;;
71204;SDS011;58935;54.498;18.544;2023-07-28T14:19:19;10.50;;;5.80;;
71204;SDS011;58935;54.498;18.544;2023-07-28T14:21:45;10.40;;;6.30;;
71204;SDS011;58935;54.498;18.544;2023-07-28T14:24:10;12.20;;;6.00;;
71204;SDS011;58935;54.498;18.544;2023-07-28T14:26:36;8.90;;;5.90;;
71204;SDS011;58935;54.498;18.544;2023-07-28T14:29:02;7.90;;;6.70;;
71204;SDS011;58935;54.498;18.544;2023-07-28T14:31:28;10.80;;;6.50;;
71204;SDS011;58935;54.498;18.544;2023-07-28T14:33:53;9.30;;;5.90;;